Latest Weather Observations for Kununurra Airport

IDW60801

Issued at 7:05 pm WST Friday 24 October 2014 (issued every 30 minutes, with the page automatically refreshed every 10 minutes)

About weather observations | Map of weather stations | Latest weather observations for WA | Other Formats
Station Details ID: 002056 Name: KUNUNURRA AERO Lat: -15.78 Lon: 128.71 Height: 44.0 m
Data from the previous 72 hours. | See also: Recent months at Kununurra Airport
Date/Time
WST
Temp
°C
App
Temp
°C
Dew
Point
Rel
Hum
%
Delta-T
°C
Wind Press
QNH
hPa
Press
MSL
hPa
Rain
since 9 am
mm
Dir
 
Spd
km/h
Gust
km/h
Spd
kts
Gust
kts
24/07:00pm 27.0 29.3 18.6 60 5.4 NE 4 11 2 6 1011.0 - 0.0
24/06:30pm 28.0 29.8 18.3 55 6.2 NE 6 6 3 3 1010.5 - 0.0
24/06:00pm 27.8 30.3 19.0 58 5.7 NE 4 6 2 3 1010.2 1009.9 0.0
24/05:30pm 28.4 29.5 18.1 53 6.6 NNW 9 11 5 6 1009.8 - 0.0
24/05:00pm 29.1 28.2 17.8 50 7.2 NNW 19 22 10 12 1009.6 - 0.0
24/04:30pm 28.4 26.5 16.7 49 7.3 WNW 22 39 12 21 1009.7 - 0.0
24/04:00pm 30.2 32.0 18.8 50 7.4 SSE 7 13 4 7 1009.1 - 0.0
24/03:30pm 31.6 28.8 18.1 44 8.7 NE 30 39 16 21 1009.3 - 0.0
24/03:29pm 32.3 29.2 18.3 43 9.1 NE 32 39 17 21 1009.2 - 0.0
24/03:00pm 37.0 31.0 13.2 24 14.6 E 37 - 20 - - 1008.8 0.0
24/02:57pm 38.0 32.9 13.1 22 15.3 E 32 54 17 29 1009.1 - 0.0
24/02:30pm 38.0 35.6 13.8 23 15.0 N 19 24 10 13 1009.0 - 0.0
24/02:00pm 38.5 37.8 13.2 22 15.6 N 9 19 5 10 1009.1 - 0.0
24/01:30pm 38.5 38.0 14.9 24 14.9 N 11 24 6 13 1009.4 - 0.0
24/01:00pm 37.9 36.9 15.5 26 14.2 N 15 24 8 13 1009.8 - 0.0
24/12:30pm 36.3 36.1 15.8 29 13.0 NE 11 19 6 10 1010.2 - 0.0
24/12:00pm 38.4 37.4 15.6 26 14.5 ENE 15 20 8 11 1010.7 1010.4 0.0
24/11:30am 36.6 37.3 17.1 31 12.6 NE 9 22 5 12 1011.4 - 0.0
24/11:00am 35.8 36.6 19.0 37 11.1 N 13 19 7 10 1012.0 - 0.0
24/10:30am 35.6 36.5 19.3 38 10.8 N 13 19 7 10 1012.7 - 0.0
24/10:00am 35.5 37.0 19.7 39 10.5 N 11 19 6 10 1013.0 - 0.0
24/09:30am 34.3 35.6 20.2 43 9.4 NNE 13 17 7 9 1013.4 - 0.0
24/09:00am 33.1 34.0 20.0 46 8.7 NNW 15 22 8 12 1013.8 1013.5 0.0
24/08:30am 32.1 33.4 20.2 49 7.9 NNE 13 19 7 10 1013.9 - 0.0
24/08:00am 31.5 32.2 20.4 51 7.4 N 17 22 9 12 1014.1 - 0.0
24/07:30am 30.5 31.6 21.3 58 6.2 N 17 20 9 11 1014.0 - 0.0
24/07:00am 29.3 30.8 22.0 64 4.9 N 17 20 9 11 1013.8 - 0.0
24/06:30am 27.4 30.4 21.9 72 3.7 N 9 15 5 8 1013.7 - 0.0
24/06:00am 26.9 28.1 21.5 72 3.6 NNE 17 22 9 12 1013.2 1012.9 0.0
24/05:30am 25.8 25.8 20.9 74 3.2 NE 22 35 12 19 1013.2 - 0.0
24/05:00am 23.8 25.9 20.9 84 1.9 SE 11 17 6 9 1012.3 - 0.0
24/04:30am 23.1 26.9 20.2 84 1.9 CALM 0 0 0 0 1011.8 - 0.0
24/04:00am 22.5 26.1 19.7 84 1.8 CALM 0 0 0 0 1011.4 - 0.0
24/03:30am 23.2 26.1 18.1 73 3.2 CALM 0 0 0 0 1011.2 - 0.0
24/03:00am 23.3 27.3 20.5 84 1.8 CALM 0 0 0 0 1011.1 1010.8 0.0
24/02:30am 23.3 26.1 20.4 84 1.9 NNW 6 7 3 4 1011.1 - 0.0
24/02:00am 23.7 26.4 20.3 81 2.2 WNW 6 7 3 4 1011.2 - 0.0
24/01:30am 24.4 27.8 20.2 77 2.7 NW 2 6 1 3 1011.4 - 0.0
24/01:00am 25.0 27.1 20.2 74 3.1 N 9 11 5 6 1011.8 - 0.0
24/12:30am 25.3 26.6 20.1 73 3.4 N 13 15 7 8 1012.0 - 0.0
24/12:00am 25.9 27.0 19.7 68 4.0 NNE 13 13 7 7 1012.0 1011.7 0.0
 
Date/Time
WST
Temp
°C
App
Temp
°C
Dew
Point
Rel
Hum
%
Delta-T
°C
Wind Press
QNH
hPa
Press
MSL
hPa
Rain
since 9 am
mm
Dir
 
Spd
km/h
Gust
km/h
Spd
kts
Gust
kts
23/11:30pm 26.0 27.8 19.5 67 4.2 NE 9 13 5 7 1012.3 - 0.0
23/11:00pm 26.2 27.5 19.2 65 4.5 NNE 11 13 6 7 1012.5 - 0.0
23/10:30pm 26.3 28.0 19.3 65 4.5 N 9 11 5 6 1012.8 - 0.0
23/10:00pm 26.7 27.5 19.1 63 4.9 N 13 17 7 9 1012.8 - 0.0
23/09:30pm 27.2 27.9 18.8 60 5.4 NNE 13 17 7 9 1012.6 - 0.0
23/09:00pm 27.8 29.3 19.0 58 5.7 N 9 15 5 8 1012.4 1012.1 0.0
23/08:30pm 27.7 29.2 19.0 59 5.6 N 9 11 5 6 1012.2 - 0.0
23/08:00pm 28.6 29.7 18.8 55 6.3 N 11 11 6 6 1011.9 - 0.0
23/07:30pm 29.8 30.4 18.5 50 7.3 N 13 15 7 8 1011.3 - 0.0
23/07:00pm 30.4 30.2 17.5 46 8.2 N 15 20 8 11 1011.0 - 0.0
23/06:30pm 30.8 31.2 17.3 44 8.6 N 11 17 6 9 1010.5 - 0.0
23/06:00pm 32.3 32.1 16.7 39 9.9 NNW 13 15 7 8 1010.2 1009.9 0.0
23/05:30pm 33.5 32.9 16.7 36 10.7 NW 15 17 8 9 1010.0 - 0.0
23/05:00pm 34.7 33.1 16.1 33 11.8 NNW 19 26 10 14 1009.6 - 0.0
23/04:30pm 35.6 33.5 16.3 31 12.3 NNW 22 28 12 15 1009.2 - 0.0
23/04:00pm 36.6 35.9 17.3 32 12.5 NNW 17 22 9 12 1008.8 - 0.0
23/03:30pm 38.2 35.5 12.9 22 15.5 N 19 24 10 13 1008.6 - 0.0
23/03:00pm 37.7 35.9 13.3 23 15.0 NNW 15 20 8 11 1008.8 1008.5 0.0
23/02:30pm 38.2 35.5 12.9 22 15.5 N 19 26 10 14 1008.8 - 0.0
23/02:00pm 38.4 38.6 14.7 24 14.9 NE 7 9 4 5 1009.2 - 0.0
23/01:30pm 36.9 35.3 15.1 27 13.7 NNE 17 26 9 14 1009.5 - 0.0
23/01:00pm 36.0 34.7 14.7 28 13.3 NNE 15 20 8 11 1009.9 - 0.0
23/12:30pm 36.9 36.3 14.7 26 13.9 WNW 11 20 6 11 1010.3 - 0.0
23/12:00pm 37.0 35.1 15.3 27 13.7 N 19 32 10 17 1010.9 1010.6 0.0
23/11:30am 37.4 35.9 16.3 28 13.5 NNE 19 24 10 13 1011.5 - 0.0
23/11:00am 36.0 35.4 16.6 31 12.4 N 15 24 8 13 1012.0 - 0.0
23/10:30am 35.0 35.3 17.9 36 11.1 NNW 13 28 7 15 1012.5 - 0.0
23/10:00am 35.4 35.5 17.4 34 11.6 NNW 13 19 7 10 1013.0 - 0.0
23/09:30am 34.3 34.5 18.5 39 10.3 N 15 24 8 13 1013.5 - 0.0
23/09:00am 32.6 33.7 19.7 46 8.5 N 13 20 7 11 1013.8 1013.5 0.0
23/08:30am 32.0 33.1 20.4 50 7.7 NNE 15 20 8 11 1014.1 - 0.0
23/08:00am 31.0 32.5 21.2 56 6.6 NNE 15 22 8 12 1014.1 - 0.0
23/07:30am 30.2 31.8 21.4 59 5.9 NNE 15 20 8 11 1014.1 - 0.0
23/07:00am 29.2 30.9 21.6 63 5.1 N 15 20 8 11 1014.1 - 0.0
23/06:30am 27.9 28.7 21.8 69 4.1 NNE 20 26 11 14 1013.9 - 0.0
23/06:00am 26.7 26.5 20.6 69 4.0 NE 22 30 12 16 1013.7 1013.4 0.0
23/05:30am 24.1 24.0 19.9 77 2.7 ENE 20 30 11 16 1013.1 - 0.0
23/05:00am 22.6 25.1 20.3 87 1.5 SSE 7 19 4 10 1012.2 - 0.0
23/04:30am 21.6 24.0 18.9 84 1.7 N 4 7 2 4 1011.6 - 0.0
23/04:00am 22.0 24.3 18.5 80 2.2 ENE 4 6 2 3 1011.4 - 0.0
23/03:30am 23.1 25.7 20.5 85 1.7 E 7 9 4 5 1011.2 - 0.0
23/03:00am 22.8 26.3 19.5 81 2.1 CALM 0 0 0 0 1011.0 1010.7 0.0
23/02:30am 22.6 24.8 19.3 81 2.1 WSW 6 7 3 4 1010.9 - 0.0
23/02:00am 23.7 25.3 20.0 80 2.4 N 11 13 6 7 1011.0 - 0.0
23/01:30am 23.0 25.0 19.2 79 2.4 NW 7 7 4 4 1011.1 - 0.0
23/01:00am 23.4 25.5 19.0 76 2.8 NW 6 9 3 5 1011.2 - 0.0
23/12:30am 24.1 25.8 18.4 70 3.6 N 7 9 4 5 1011.7 - 0.0
23/12:00am 24.4 26.1 18.4 69 3.8 NNW 7 11 4 6 1012.0 1011.7 0.0
 
Date/Time
WST
Temp
°C
App
Temp
°C
Dew
Point
Rel
Hum
%
Delta-T
°C
Wind Press
QNH
hPa
Press
MSL
hPa
Rain
since 9 am
mm
Dir
 
Spd
km/h
Gust
km/h
Spd
kts
Gust
kts
22/11:30pm 25.0 25.9 18.4 66 4.2 N 11 13 6 7 1012.1 - 0.0
22/11:00pm 25.3 27.4 18.0 64 4.6 NW 4 7 2 4 1012.4 - 0.0
22/10:30pm 26.5 26.8 17.8 58 5.5 NNE 13 15 7 8 1012.3 - 0.0
22/10:00pm 26.5 28.2 18.0 59 5.4 NNE 6 11 3 6 1012.6 - 0.0
22/09:30pm 27.1 28.0 18.3 58 5.6 N 11 15 6 8 1012.5 - 0.0
22/09:00pm 27.5 27.6 18.4 57 5.8 N 15 17 8 9 1012.5 1012.2 0.0
22/08:30pm 28.0 28.9 18.3 55 6.2 NNE 11 13 6 7 1012.3 - 0.0
22/08:00pm 28.3 28.8 18.3 54 6.4 N 13 15 7 8 1012.0 - 0.0
22/07:30pm 29.3 30.6 17.5 49 7.5 N 7 11 4 6 1011.8 - 0.0
22/07:00pm 30.2 30.8 17.8 47 7.9 N 11 13 6 7 1011.5 - 0.0
22/06:30pm 31.3 31.2 16.9 42 9.1 N 13 17 7 9 1011.1 - 0.0
22/06:00pm 32.3 31.6 17.3 40 9.6 NNW 17 22 9 12 1010.6 1010.3 0.0
22/05:30pm 33.0 32.5 17.0 38 10.2 N 15 20 8 11 1010.2 - 0.0
22/05:00pm 34.6 33.1 16.3 33 11.6 NNW 19 24 10 13 1009.9 - 0.0
22/04:30pm 35.5 34.4 17.2 33 11.8 N 19 24 10 13 1009.6 - 0.0
22/04:00pm 36.4 34.3 17.2 32 12.4 N 24 32 13 17 1009.5 - 0.0
22/03:30pm 37.3 34.8 15.1 26 14.0 N 22 28 12 15 1009.2 - 0.0
22/03:00pm 38.2 34.9 11.6 20 16.0 NE 20 28 11 15 1009.2 1008.9 0.0
22/02:30pm 38.3 36.6 11.2 19 16.2 E 11 20 6 11 1009.3 - 0.0
22/02:00pm 39.1 35.6 10.2 17 17.1 E 19 24 10 13 1009.5 - 0.0
22/01:30pm 38.5 35.8 10.2 18 16.7 E 15 20 8 11 1009.8 - 0.0
22/01:00pm 38.2 37.1 10.8 19 16.3 E 7 17 4 9 1010.2 - 0.0
22/12:30pm 37.2 36.1 14.2 25 14.3 NNW 13 28 7 15 1010.8 - 0.0
22/12:00pm 38.8 35.2 13.1 21 15.8 N 24 32 13 17 1011.2 1010.9 0.0
22/11:30am 37.2 34.0 13.0 23 14.8 N 22 30 12 16 1011.9 - 0.0
22/11:00am 36.6 34.9 16.2 29 13.0 N 20 30 11 16 1012.4 - 0.0
22/10:30am 36.0 35.1 17.7 34 11.9 N 19 30 10 16 1013.2 - 0.0
22/10:00am 34.3 33.7 18.5 39 10.3 NNW 19 24 10 13 1013.7 - 0.0
22/09:30am 33.5 34.2 18.8 41 9.6 N 13 20 7 11 1014.2 - 0.0
22/09:00am 33.0 35.1 20.1 46 8.6 NNW 9 20 5 11 1014.5 1014.2 0.0
22/08:30am 31.6 32.9 20.8 52 7.2 N 15 20 8 11 1014.7 - 0.0
22/08:00am 31.7 32.1 21.0 53 7.2 NNE 20 24 11 13 1014.7 - 0.0
22/07:30am 29.9 30.4 20.9 58 6.0 N 19 24 10 13 1014.6 - 0.0
22/07:00am 27.9 30.7 21.6 68 4.2 N 9 13 5 7 1014.3 - 0.0
22/06:30am 26.7 30.0 21.4 72 3.5 W 6 9 3 5 1013.7 - 0.0
22/06:00am 25.0 29.1 21.5 81 2.3 E 2 7 1 4 1013.5 1013.2 0.0
22/05:30am 24.0 28.2 21.7 87 1.5 SSW 2 7 1 4 1013.4 - 0.0
22/05:00am 23.2 26.1 21.1 88 1.4 SW 7 11 4 6 1013.0 - 0.0
22/04:30am 24.1 26.0 21.4 85 1.8 E 13 15 7 8 1012.9 - 0.0
22/04:00am 22.7 24.6 19.7 83 1.9 N 9 11 5 6 1011.9 - 0.0
22/03:30am 22.6 25.4 20.4 87 1.4 WNW 6 7 3 4 1011.7 - 0.0
22/03:00am 22.6 25.3 20.3 87 1.5 NNW 6 7 3 4 1011.6 1011.3 0.0
22/02:30am 23.0 26.6 19.7 82 2.1 CALM 0 0 0 0 1011.6 - 0.0
22/02:16am 23.0 26.8 20.1 84 1.9 CALM 0 0 0 0 1011.6 - 0.0
22/02:00am 22.6 26.1 19.6 83 1.9 CALM 0 0 0 0 1011.6 - 0.0
22/01:57am 22.6 26.1 19.6 83 1.9 CALM 0 0 0 0 1011.6 - 0.0
22/01:30am 24.0 28.0 20.6 81 2.2 CALM 0 0 0 0 1011.8 - 0.0
22/01:00am 24.0 27.7 20.0 78 2.6 CALM 0 0 0 0 1012.0 - 0.0
22/12:30am 24.1 26.7 20.1 78 2.6 N 6 6 3 3 1012.1 - 0.0
22/12:00am 24.8 27.6 20.4 76 2.9 N 6 7 3 4 1012.5 1012.2 0.0
 
Date/Time
WST
Temp
°C
App
Temp
°C
Dew
Point
Rel
Hum
%
Delta-T
°C
Wind Press
QNH
hPa
Press
MSL
hPa
Rain
since 9 am
mm
Dir
 
Spd
km/h
Gust
km/h
Spd
kts
Gust
kts
21/11:30pm 25.2 27.6 20.1 73 3.3 N 7 9 4 5 1013.0 - 0.0
21/11:00pm 26.4 28.7 19.8 67 4.3 NNE 7 11 4 6 1013.5 - 0.0
21/10:30pm 26.9 28.3 19.5 64 4.8 NNE 11 13 6 7 1013.8 - 0.0
21/10:00pm 26.8 28.6 19.5 64 4.7 NNW 9 13 5 7 1013.7 - 0.0
21/09:30pm 27.3 29.0 19.3 61 5.2 NNW 9 13 5 7 1013.8 - 0.0
21/09:00pm 27.7 28.3 18.5 57 5.9 NNE 13 19 7 10 1013.8 1013.5 0.0
21/08:30pm 28.2 28.6 18.2 54 6.4 NNE 13 15 7 8 1013.5 - 0.0
21/08:00pm 28.4 29.3 18.4 54 6.4 N 11 11 6 6 1013.3 - 0.0
21/07:30pm 29.4 29.8 18.2 51 7.2 N 13 13 7 7 1013.1 - 0.0

Other Formats:

Comma delimited format used in spreadsheet applications
http://www.bom.gov.au/fwo/IDW60801/IDW60801.94216.axf

JavaScript Object Notation format (JSON) in row-major order
http://www.bom.gov.au/fwo/IDW60801/IDW60801.94216.json